Time;durP1;ratioP1;P1;durP2;ratioP2;P2;SDS_P1;SDS_P2;PMS_P1;PMS_P2;Temp;Humidity;BMP_temperature;BMP_pressure;BME280_temperature;BME280_humidity;BME280_pressure;Samples;Min_cycle;Max_cycle;Signal;HPM_P1;HPM_P2
2021/05/10 00:00:52;;;;;;;5.95;2.13;;;;;;;16.73;65.39;97559.38;4720872;29;103438;-76
2021/05/10 00:03:21;;;;;;;1.70;1.45;;;;;;;16.64;65.71;97546.28;4721470;29;102962;-76
2021/05/10 00:05:50;;;;;;;1.50;1.40;;;;;;;16.41;66.11;97546.22;4710386;29;103660;-76
2021/05/10 00:08:18;;;;;;;1.92;1.55;;;;;;;16.70;65.34;97557.06;4720542;29;103786;-76
2021/05/10 00:10:45;;;;;;;1.80;1.60;;;;;;;16.83;64.79;97566.31;4730580;29;104922;-76
2021/05/10 00:13:15;;;;;;;1.83;1.73;;;;;;;16.85;64.48;97575.81;4724125;29;107250;-76
2021/05/10 00:15:42;;;;;;;3.45;1.50;;;;;;;16.95;64.10;97575.59;4731704;29;103283;-76
2021/05/10 00:18:09;;;;;;;3.83;1.80;;;;;;;17.04;63.71;97578.00;4721218;29;105394;-76
2021/05/10 00:20:38;;;;;;;2.92;1.45;;;;;;;16.97;64.45;97579.75;4721214;29;103818;-76
2021/05/10 00:23:06;;;;;;;1.80;1.70;;;;;;;16.65;65.76;97570.09;4719819;29;103291;-76
2021/05/10 00:25:33;;;;;;;4.38;1.90;;;;;;;16.49;67.60;97562.16;4720304;29;103435;-76
2021/05/10 00:28:00;;;;;;;1.65;1.55;;;;;;;16.52;66.08;97569.81;4720389;29;105406;-76
2021/05/10 00:30:27;;;;;;;4.70;2.40;;;;;;;16.16;69.01;97574.81;4729613;29;104441;-76
2021/05/10 00:32:56;;;;;;;2.60;2.30;;;;;;;16.08;69.11;97561.50;4710842;29;102624;-75
2021/05/10 00:35:24;;;;;;;3.42;2.17;;;;;;;16.00;69.83;97548.22;4729458;29;103725;-75
2021/05/10 00:37:51;;;;;;;3.28;1.73;;;;;;;16.28;67.76;97545.94;4719295;29;106125;-75
2021/05/10 00:40:21;;;;;;;1.88;1.58;;;;;;;16.50;67.04;97545.19;4720394;29;103923;-75
2021/05/10 00:42:48;;;;;;;2.13;1.88;;;;;;;16.41;67.90;97548.88;4713820;29;103114;-75
2021/05/10 00:45:17;;;;;;;3.90;2.10;;;;;;;16.51;68.14;97554.81;4718037;29;103153;-75
2021/05/10 00:47:45;;;;;;;2.47;2.13;;;;;;;16.44;68.64;97551.22;4720577;29;103379;-75
2021/05/10 00:50:13;;;;;;;2.72;2.50;;;;;;;16.00;69.81;97547.41;4703588;29;105501;-74
2021/05/10 00:52:40;;;;;;;3.25;2.08;;;;;;;16.01;69.42;97549.91;4720225;29;103339;-74
2021/05/10 00:55:09;;;;;;;3.58;2.40;;;;;;;15.96;69.33;97540.75;4720743;29;103039;-75
2021/05/10 00:57:41;;;;;;;3.17;2.17;;;;;;;16.10;69.26;97548.03;4719253;29;105160;-75
2021/05/10 01:00:10;;;;;;;2.97;2.47;;;;;;;15.83;69.43;97548.47;4720057;29;104876;-74
2021/05/10 01:02:38;;;;;;;4.25;2.25;;;;;;;15.71;69.79;97549.81;4715744;29;104812;-74
2021/05/10 01:05:06;;;;;;;3.70;2.33;;;;;;;15.88;68.96;97554.94;4717044;29;102979;-75
2021/05/10 01:07:34;;;;;;;2.30;2.10;;;;;;;15.87;69.25;97552.44;4720769;29;103790;-74
2021/05/10 01:10:06;;;;;;;3.10;2.20;;;;;;;15.61;70.27;97550.00;4707968;29;114523;-75
2021/05/10 01:12:33;;;;;;;3.40;2.72;;;;;;;15.62;70.05;97549.00;4725748;29;102914;-74
2021/05/10 01:15:01;;;;;;;3.08;2.42;;;;;;;15.55;70.79;97540.88;4720495;29;102862;-75
2021/05/10 01:17:28;;;;;;;3.80;2.33;;;;;;;15.57;71.17;97552.19;4720547;29;105542;-75
2021/05/10 01:19:56;;;;;;;2.92;2.45;;;;;;;15.46;72.17;97533.91;4719532;29;103737;-74
2021/05/10 01:22:23;;;;;;;3.35;2.80;;;;;;;15.20;72.08;97527.91;4720299;29;103100;-74
2021/05/10 01:24:52;;;;;;;4.47;2.60;;;;;;;15.33;71.20;97524.72;4719140;29;108929;-75
2021/05/10 01:27:19;;;;;;;3.13;2.40;;;;;;;15.63;69.13;97530.19;4719366;29;105258;-74
2021/05/10 01:29:46;;;;;;;3.90;2.55;;;;;;;15.61;70.66;97529.53;4718864;29;106397;-75
2021/05/10 01:32:13;;;;;;;7.40;2.72;;;;;;;15.52;71.23;97533.22;4718769;29;103108;-74
2021/05/10 01:34:40;;;;;;;2.90;2.40;;;;;;;15.26;71.05;97527.25;4712960;29;102991;-74
2021/05/10 01:37:07;;;;;;;3.60;2.20;;;;;;;15.51;70.08;97531.56;4719522;29;104863;-74
2021/05/10 01:39:34;;;;;;;2.40;2.10;;;;;;;15.56;70.54;97534.56;4719372;29;103795;-74
2021/05/10 01:42:02;;;;;;;4.20;2.00;;;;;;;15.37;71.43;97539.38;4719192;29;102991;-75
2021/05/10 01:44:29;;;;;;;3.77;2.70;;;;;;;15.28;72.25;97529.75;4722062;29;103794;-74
2021/05/10 01:46:55;;;;;;;2.92;2.53;;;;;;;15.19;71.70;97534.22;4720819;29;103897;-75
2021/05/10 01:49:23;;;;;;;4.07;3.17;;;;;;;14.95;72.38;97528.94;4718722;29;103760;-74
2021/05/10 01:51:50;;;;;;;2.60;2.03;;;;;;;15.14;70.90;97533.91;4718020;29;102856;-75
2021/05/10 01:54:19;;;;;;;4.77;2.87;;;;;;;14.94;73.02;97524.59;4719369;29;103247;-74
2021/05/10 01:56:46;;;;;;;3.63;2.30;;;;;;;15.05;71.68;97522.44;4718372;29;109154;-74
2021/05/10 01:59:14;;;;;;;2.27;2.00;;;;;;;15.07;71.80;97522.28;4719329;29;104090;-74
2021/05/10 02:01:41;;;;;;;2.77;2.23;;;;;;;15.12;71.59;97525.28;4714355;29;107386;-74
2021/05/10 02:04:08;;;;;;;2.93;2.10;;;;;;;15.22;70.98;97531.25;4720163;29;104382;-74
2021/05/10 02:06:35;;;;;;;3.20;2.10;;;;;;;15.20;71.54;97527.91;4714936;29;104378;-74
2021/05/10 02:09:04;;;;;;;5.47;2.90;;;;;;;14.94;73.25;97525.44;4718772;29;105960;-74
2021/05/10 02:11:30;;;;;;;4.17;3.07;;;;;;;14.79;73.67;97515.63;4718315;29;102982;-74
2021/05/10 02:13:58;;;;;;;3.87;2.83;;;;;;;14.53;75.48;97521.09;4718209;29;103105;-74
2021/05/10 02:16:26;;;;;;;5.43;3.00;;;;;;;14.73;73.76;97509.16;4719107;29;103516;-74
2021/05/10 02:18:56;;;;;;;4.10;3.07;;;;;;;14.81;73.94;97510.97;4718897;29;103902;-74
2021/05/10 02:21:29;;;;;;;3.20;2.73;;;;;;;14.60;75.48;97510.59;4719451;29;102674;-74
2021/05/10 02:23:56;;;;;;;5.30;2.90;;;;;;;14.59;75.54;97511.63;4719450;29;104105;-74
2021/05/10 02:26:24;;;;;;;4.73;2.80;;;;;;;14.72;74.32;97501.31;4719094;29;104113;-74
2021/05/10 02:28:51;;;;;;;2.43;2.13;;;;;;;14.70;74.40;97503.34;4719174;29;103759;-74
2021/05/10 02:31:18;;;;;;;2.37;2.17;;;;;;;14.82;73.49;97504.66;4719091;29;102937;-74
2021/05/10 02:33:46;;;;;;;3.00;2.70;;;;;;;14.89;72.97;97514.47;4719222;29;102713;-74
2021/05/10 02:36:13;;;;;;;3.20;2.70;;;;;;;14.67;76.10;97516.94;4711234;29;103207;-74
2021/05/10 02:38:40;;;;;;;3.90;2.90;;;;;;;14.67;76.10;97514.28;4718627;29;103793;-74
2021/05/10 02:41:06;;;;;;;2.53;2.33;;;;;;;14.07;79.10;97505.66;4703123;29;103342;-74
2021/05/10 02:43:33;;;;;;;3.83;3.00;;;;;;;14.07;79.58;97510.94;4718922;29;102814;-74
2021/05/10 02:46:01;;;;;;;2.53;2.30;;;;;;;14.01;79.06;97507.13;4713489;29;104027;-74
2021/05/10 02:48:28;;;;;;;4.37;3.30;;;;;;;14.24;78.74;97500.22;4718313;29;103689;-75
2021/05/10 02:50:56;;;;;;;3.63;2.80;;;;;;;14.08;79.33;97497.53;4715196;29;103325;-75
2021/05/10 02:53:23;;;;;;;2.47;2.13;;;;;;;14.25;77.75;97501.06;4718811;29;103369;-75
2021/05/10 02:55:50;;;;;;;2.73;2.37;;;;;;;14.10;78.85;97492.88;4701619;29;103488;-74
2021/05/10 02:58:17;;;;;;;2.00;1.80;;;;;;;14.38;77.14;97489.00;4718211;29;104801;-75
2021/05/10 03:00:44;;;;;;;3.13;2.80;;;;;;;14.09;79.37;97480.59;4718577;29;102962;-74
2021/05/10 03:03:11;;;;;;;4.23;2.93;;;;;;;13.94;80.11;97479.56;4718738;29;103121;-75
2021/05/10 03:05:39;;;;;;;4.87;3.00;;;;;;;13.94;80.33;97483.06;4707618;29;103908;-75
2021/05/10 03:08:07;;;;;;;5.93;3.40;;;;;;;13.81;81.10;97484.50;4717984;29;103957;-74
2021/05/10 03:10:34;;;;;;;3.30;2.83;;;;;;;14.01;79.84;97490.38;4718657;29;103094;-75
2021/05/10 03:13:01;;;;;;;3.83;3.10;;;;;;;14.26;78.06;97500.09;4714578;29;104236;-75
2021/05/10 03:15:28;;;;;;;3.30;2.40;;;;;;;14.31;77.43;97498.59;4717965;29;105055;-75
2021/05/10 03:17:55;;;;;;;3.33;2.90;;;;;;;13.94;80.01;97498.97;4718513;29;103732;-75
2021/05/10 03:20:23;;;;;;;5.10;3.70;;;;;;;14.00;79.88;97494.84;4718104;29;103054;-75
2021/05/10 03:22:52;;;;;;;4.67;3.07;;;;;;;13.98;79.33;97491.50;4718566;29;102877;-75
2021/05/10 03:25:21;;;;;;;3.80;2.70;;;;;;;14.07;79.05;97506.47;4717925;29;103586;-75
2021/05/10 03:27:49;;;;;;;3.23;2.93;;;;;;;14.17;78.91;97511.66;4718244;29;103245;-75
2021/05/10 03:30:19;;;;;;;5.00;3.30;;;;;;;14.18;78.35;97503.53;4718480;29;103159;-81
2021/05/10 03:32:47;;;;;;;5.23;3.40;;;;;;;14.08;78.87;97505.50;4718539;29;102718;-84
2021/05/10 03:35:15;;;;;;;3.97;3.50;;;;;;;13.87;80.03;97499.75;4706859;29;104756;-85
2021/05/10 03:37:45;;;;;;;3.27;2.97;;;;;;;14.04;78.75;97512.13;4709738;29;103696;-85
2021/05/10 03:40:21;;;;;;;3.97;3.00;;;;;;;13.98;80.61;97534.00;4716925;29;103477;-86
2021/05/10 03:42:48;;;;;;;4.33;3.30;;;;;;;14.16;79.00;97542.69;4717872;29;103125;-79
2021/05/10 03:45:16;;;;;;;4.57;3.23;;;;;;;14.18;79.62;97547.84;4717258;29;104602;-82
2021/05/10 03:47:44;;;;;;;3.83;2.97;;;;;;;14.23;79.54;97558.84;4725222;29;110972;-87
2021/05/10 03:50:12;;;;;;;3.83;2.83;;;;;;;14.30;79.10;97560.69;4716401;29;103321;-86
2021/05/10 03:52:40;;;;;;;2.83;2.53;;;;;;;14.14;80.18;97565.09;4715631;29;108534;-86
2021/05/10 03:55:08;;;;;;;4.00;3.00;;;;;;;14.00;81.36;97566.56;4717365;29;104003;-85
2021/05/10 03:57:37;;;;;;;2.97;2.63;;;;;;;14.04;80.76;97567.03;4714201;29;104176;-88
2021/05/10 04:00:05;;;;;;;3.63;3.10;;;;;;;14.02;81.06;97571.69;4716373;29;107499;-88
2021/05/10 04:02:34;;;;;;;7.83;3.70;;;;;;;14.10;80.73;97569.91;4715938;29;103132;-88
2021/05/10 04:05:09;;;;;;;3.77;3.47;;;;;;;13.92;82.52;97562.00;4720881;29;104431;-88
2021/05/10 04:07:50;;;;;;;4.37;3.60;;;;;;;13.77;83.87;97568.09;4716220;29;104201;-86
2021/05/10 04:15:59;;;;;;;4.60;3.50;;;;;;;13.49;86.18;97569.25;4715700;29;104017;-87
2021/05/10 04:18:25;;;;;;;5.77;3.90;;;;;;;13.55;85.12;97565.97;4715798;29;103278;-85
2021/05/10 04:20:53;;;;;;;4.43;3.93;;;;;;;13.71;83.80;97581.97;4711250;29;103275;-83
2021/05/10 04:23:21;;;;;;;4.00;3.60;;;;;;;14.04;81.03;97596.25;4715815;29;103030;-83
2021/05/10 04:25:50;;;;;;;5.10;3.13;;;;;;;14.18;79.53;97591.19;4716961;29;103956;-82
2021/05/10 04:28:20;;;;;;;8.33;3.67;;;;;;;14.21;79.39;97592.69;4715313;29;105286;-82
2021/05/10 04:30:48;;;;;;;4.20;2.93;;;;;;;14.23;79.65;97591.53;4714931;29;103106;-84
2021/05/10 04:33:15;;;;;;;3.40;3.10;;;;;;;14.37;78.94;97598.91;4718391;29;102792;-83
2021/05/10 04:35:42;;;;;;;4.83;2.40;;;;;;;14.45;78.05;97588.34;4725723;29;104569;-84
2021/05/10 04:38:10;;;;;;;4.13;3.00;;;;;;;14.66;75.94;97579.06;4725619;29;104249;-83
2021/05/10 04:40:39;;;;;;;3.30;2.80;;;;;;;14.79;76.67;97584.75;4727186;29;103067;-84
2021/05/10 04:43:07;;;;;;;3.50;3.17;;;;;;;14.85;75.65;97589.44;4703998;29;109178;-84
2021/05/10 04:45:35;;;;;;;5.03;3.00;;;;;;;14.85;76.41;97581.44;4712626;29;104050;-84
2021/05/10 04:48:02;;;;;;;5.10;2.90;;;;;;;14.80;77.19;97579.25;4734786;29;104344;-83
2021/05/10 04:50:30;;;;;;;6.47;3.23;;;;;;;14.78;77.68;97575.09;4711897;29;103144;-84
2021/05/10 04:52:57;;;;;;;3.70;2.90;;;;;;;14.94;77.29;97575.97;4719481;29;103109;-84
2021/05/10 04:55:24;;;;;;;5.03;3.67;;;;;;;14.94;75.79;97570.63;4720221;29;104171;-84
2021/05/10 04:57:51;;;;;;;4.47;3.20;;;;;;;15.14;75.16;97570.31;4717770;29;104772;-83
2021/05/10 05:00:19;;;;;;;4.37;2.40;;;;;;;15.40;72.99;97573.63;4719769;29;102621;-84
2021/05/10 05:02:47;;;;;;;3.47;2.70;;;;;;;15.52;73.93;97572.34;4724090;29;103207;-84
2021/05/10 05:05:14;;;;;;;2.93;2.63;;;;;;;15.70;75.06;97577.44;4717834;29;104278;-84
2021/05/10 05:07:41;;;;;;;3.43;2.30;;;;;;;15.81;73.95;97585.06;4702588;29;103359;-84
2021/05/10 05:10:09;;;;;;;4.07;2.90;;;;;;;15.71;73.53;97579.13;4702941;29;103457;-84
2021/05/10 05:12:37;;;;;;;4.10;3.00;;;;;;;15.79;73.18;97584.41;4724076;29;103130;-83
2021/05/10 05:15:06;;;;;;;4.27;2.80;;;;;;;15.94;72.18;97585.38;4733500;29;104134;-84
2021/05/10 05:17:33;;;;;;;8.03;3.03;;;;;;;15.90;71.45;97592.88;4737427;29;103990;-84
2021/05/10 05:20:01;;;;;;;3.70;2.60;;;;;;;16.03;71.69;97587.84;4737235;29;103092;-84
2021/05/10 05:22:31;;;;;;;3.20;2.30;;;;;;;16.15;71.44;97591.81;4738107;29;103203;-84
2021/05/10 05:25:00;;;;;;;5.77;3.00;;;;;;;15.88;74.31;97586.06;4734110;29;104323;-84
2021/05/10 05:27:28;;;;;;;2.40;2.20;;;;;;;16.06;72.56;97606.16;4737865;29;103791;-84
2021/05/10 05:29:55;;;;;;;3.23;2.30;;;;;;;16.22;72.20;97594.63;4736239;29;103123;-84
2021/05/10 05:32:23;;;;;;;3.37;2.30;;;;;;;16.29;74.20;97595.56;4737350;29;102771;-84
2021/05/10 05:34:51;;;;;;;6.23;2.97;;;;;;;16.17;73.73;97608.44;4730978;29;103926;-84
2021/05/10 05:37:19;;;;;;;5.90;2.77;;;;;;;16.11;72.20;97613.66;4737077;29;103760;-83
2021/05/10 05:39:46;;;;;;;3.83;3.10;;;;;;;16.10;70.91;97612.81;4737480;29;102795;-84
2021/05/10 05:42:13;;;;;;;4.43;2.70;;;;;;;16.07;73.31;97606.97;4737859;29;102999;-83
2021/05/10 05:44:44;;;;;;;5.10;2.60;;;;;;;16.18;72.00;97618.09;4736318;29;105378;-83
2021/05/10 05:47:16;;;;;;;7.10;2.90;;;;;;;16.23;70.43;97620.25;4736349;29;111301;-83
2021/05/10 05:49:43;;;;;;;5.27;2.80;;;;;;;16.71;69.20;97625.41;4737238;29;103343;-81
2021/05/10 05:52:10;;;;;;;5.77;3.33;;;;;;;16.40;71.96;97618.34;4744135;29;103134;-83
2021/05/10 05:54:38;;;;;;;3.13;2.47;;;;;;;16.77;70.51;97648.72;4742962;29;104047;-81
2021/05/10 05:57:06;;;;;;;3.10;2.43;;;;;;;17.07;69.52;97646.19;4730353;29;104489;-78
2021/05/10 05:59:36;;;;;;;2.17;1.93;;;;;;;17.18;70.54;97645.78;4746319;29;102898;-82
2021/05/10 06:02:03;;;;;;;3.63;2.27;;;;;;;17.17;70.86;97654.81;4735634;29;104520;-82
2021/05/10 06:04:30;;;;;;;4.87;2.83;;;;;;;17.21;70.48;97666.78;4734204;29;103945;-82
2021/05/10 06:06:57;;;;;;;3.28;1.83;;;;;;;17.23;71.17;97675.47;4736097;29;103231;-82
2021/05/10 06:09:25;;;;;;;2.10;1.90;;;;;;;17.37;69.67;97698.72;4735531;29;103035;-82
2021/05/10 06:11:55;;;;;;;6.80;2.78;;;;;;;17.16;69.88;97711.84;4724738;29;103235;-74
2021/05/10 06:14:22;;;;;;;7.13;2.80;;;;;;;17.08;70.08;97714.56;4729074;29;105244;-78
2021/05/10 06:16:50;;;;;;;7.90;3.33;;;;;;;17.15;68.46;97731.56;4735278;29;103825;-76
2021/05/10 06:19:17;;;;;;;6.53;3.07;;;;;;;17.29;67.85;97754.84;4734189;29;103147;-76
2021/05/10 06:21:44;;;;;;;4.47;2.60;;;;;;;17.45;67.73;97733.38;4735254;29;102902;-74
2021/05/10 06:24:12;;;;;;;4.55;2.35;;;;;;;17.52;66.81;97717.44;4723738;29;104062;-74
2021/05/10 06:26:40;;;;;;;3.97;2.20;;;;;;;17.81;67.20;97717.59;4735557;29;103783;-74
2021/05/10 06:29:08;;;;;;;4.05;2.17;;;;;;;17.88;66.31;97719.38;4735086;29;103041;-74
2021/05/10 06:31:35;;;;;;;3.25;2.00;;;;;;;18.09;65.51;97709.84;4730109;29;103273;-75
2021/05/10 06:34:05;;;;;;;6.07;2.45;;;;;;;17.96;65.04;97729.97;4734567;29;105922;-75
2021/05/10 06:36:32;;;;;;;2.90;1.67;;;;;;;18.31;64.78;97731.16;4730646;29;105280;-75
2021/05/10 06:38:59;;;;;;;3.13;1.88;;;;;;;18.63;63.43;97719.34;4735020;29;103344;-75
2021/05/10 06:41:26;;;;;;;3.65;2.70;;;;;;;18.35;65.61;97721.78;4737582;29;103080;-75
2021/05/10 06:43:53;;;;;;;3.47;1.80;;;;;;;18.51;64.12;97715.44;4741529;29;105470;-75
2021/05/10 06:46:23;;;;;;;6.55;1.95;;;;;;;18.79;62.88;97711.13;4735373;29;103832;-75
2021/05/10 06:48:50;;;;;;;2.97;1.90;;;;;;;19.05;64.18;97714.13;4728191;29;102646;-74
2021/05/10 06:51:18;;;;;;;2.75;1.50;;;;;;;19.26;64.15;97731.22;4723386;29;103065;-74
2021/05/10 06:53:45;;;;;;;4.85;2.28;;;;;;;19.14;64.36;97725.56;4734541;29;104657;-74
2021/05/10 06:56:13;;;;;;;6.32;2.92;;;;;;;18.91;62.60;97732.88;4736131;29;104375;-74
2021/05/10 06:58:40;;;;;;;8.88;2.30;;;;;;;19.27;63.20;97743.63;4716901;29;103186;-74
2021/05/10 07:01:07;;;;;;;2.90;1.90;;;;;;;19.57;62.19;97739.84;4727800;29;103153;-74
2021/05/10 07:03:35;;;;;;;3.30;1.88;;;;;;;19.84;60.68;97736.44;4742776;29;103507;-74
2021/05/10 07:06:09;;;;;;;5.47;2.30;;;;;;;19.95;61.56;97748.50;4729454;29;103868;-73
2021/05/10 07:08:37;;;;;;;4.13;2.85;;;;;;;19.97;60.43;97758.00;4733823;29;103174;-75
2021/05/10 07:11:04;;;;;;;3.08;2.00;;;;;;;20.12;60.48;97766.81;4745025;29;106813;-74
2021/05/10 07:13:31;;;;;;;2.80;2.00;;;;;;;20.28;59.35;97780.97;4733865;29;104469;-75
2021/05/10 07:15:58;;;;;;;5.82;2.63;;;;;;;20.18;58.94;97792.81;4727377;29;104020;-74
2021/05/10 07:18:26;;;;;;;10.15;2.47;;;;;;;20.16;58.84;97794.03;4731418;29;102781;-73
2021/05/10 07:20:54;;;;;;;3.30;1.70;;;;;;;20.48;57.84;97787.34;4732315;29;103393;-77
2021/05/10 07:23:22;;;;;;;3.88;1.88;;;;;;;20.83;57.58;97802.44;4742745;29;103962;-74
2021/05/10 07:25:54;;;;;;;3.55;1.90;;;;;;;20.78;57.38;97810.25;4733452;29;103919;-74
2021/05/10 07:28:26;;;;;;;3.55;1.80;;;;;;;21.19;57.52;97813.81;4730145;29;103084;-74
2021/05/10 07:30:54;;;;;;;2.45;1.70;;;;;;;21.83;54.58;97806.25;4718919;29;103439;-74
2021/05/10 07:33:21;;;;;;;6.60;2.42;;;;;;;21.00;58.58;97809.16;4739912;29;105348;-74
2021/05/10 07:35:48;;;;;;;3.17;2.17;;;;;;;20.44;57.13;97807.50;4734406;29;103819;-74
2021/05/10 07:38:16;;;;;;;2.03;1.50;;;;;;;20.56;56.98;97816.69;4733348;29;103050;-74
2021/05/10 07:40:44;;;;;;;4.05;1.70;;;;;;;21.03;56.31;97803.38;4731796;29;102814;-76
2021/05/10 07:43:11;;;;;;;7.30;2.38;;;;;;;21.06;56.02;97824.47;4730216;29;103986;-75
2021/05/10 07:45:39;;;;;;;2.08;1.52;;;;;;;21.11;56.29;97814.00;4731534;29;104170;-75
2021/05/10 07:48:07;;;;;;;2.88;1.83;;;;;;;21.45;56.81;97821.19;4728865;29;103838;-77
2021/05/10 07:50:34;;;;;;;3.85;1.70;;;;;;;22.02;55.70;97825.34;4737303;29;103370;-74
2021/05/10 07:53:01;;;;;;;5.45;2.15;;;;;;;22.35;54.11;97824.34;4730494;29;105296;-75
2021/05/10 07:55:30;;;;;;;7.22;2.00;;;;;;;22.66;53.80;97828.31;4719961;29;105314;-75
2021/05/10 07:57:57;;;;;;;5.13;2.13;;;;;;;22.99;52.85;97829.09;4734238;29;104523;-74
2021/05/10 08:00:28;;;;;;;4.20;1.90;;;;;;;22.19;55.04;97830.13;4737050;29;103469;-75
2021/05/10 08:02:59;;;;;;;3.10;1.52;;;;;;;22.37;55.25;97819.59;4737855;29;104799;-75
2021/05/10 08:05:27;;;;;;;3.58;1.88;;;;;;;22.06;55.92;97805.91;4738069;29;111714;-74
2021/05/10 08:07:55;;;;;;;3.67;1.42;;;;;;;22.51;54.94;97815.84;4731284;29;107486;-74
2021/05/10 08:10:22;;;;;;;3.70;1.60;;;;;;;22.26;54.67;97814.00;4738864;29;103716;-77
2021/05/10 08:12:50;;;;;;;4.38;1.80;;;;;;;21.68;56.78;97799.38;4732675;29;104856;-78
2021/05/10 08:15:18;;;;;;;6.53;1.58;;;;;;;22.40;56.63;97794.94;4738221;29;104201;-78
2021/05/10 08:17:47;;;;;;;2.63;1.88;;;;;;;22.35;54.89;97794.75;4736010;29;102980;-79
2021/05/10 08:20:34;;;;;;;4.85;1.63;;;;;;;23.21;53.71;97808.97;4734228;29;103135;-79
2021/05/10 08:23:01;;;;;;;4.47;1.65;;;;;;;22.59;54.27;97814.00;4735052;29;104838;-78
2021/05/10 08:25:29;;;;;;;2.90;1.48;;;;;;;23.57;52.73;97809.28;4735286;29;103732;-78
2021/05/10 08:27:57;;;;;;;3.58;1.42;;;;;;;22.71;54.02;97818.56;4730704;29;103376;-82
2021/05/10 08:30:25;;;;;;;2.92;1.42;;;;;;;23.63;52.31;97810.28;4719089;29;103315;-79
2021/05/10 08:32:54;;;;;;;5.85;1.85;;;;;;;22.85;53.71;97822.09;4734255;29;106904;-84
2021/05/10 08:35:23;;;;;;;3.70;1.70;;;;;;;22.65;54.08;97821.28;4735083;29;103476;-87
2021/05/10 08:38:01;;;;;;;3.63;2.03;;;;;;;22.45;53.30;97826.66;4739026;29;103163;-81
2021/05/10 08:40:31;;;;;;;5.43;1.90;;;;;;;22.02;55.04;97831.53;4745454;29;102928;-81
2021/05/10 08:43:00;;;;;;;5.10;1.98;;;;;;;22.37;54.54;97837.63;4736679;29;108126;-79
2021/05/10 08:45:28;;;;;;;4.88;2.00;;;;;;;21.80;55.93;97830.84;4735180;29;103266;-83
2021/05/10 08:47:59;;;;;;;6.15;1.88;;;;;;;21.47;57.61;97837.97;4736324;29;103118;-79
2021/05/10 08:50:27;;;;;;;7.72;2.42;;;;;;;21.08;58.20;97848.50;4750330;29;103521;-81
2021/05/10 08:52:54;;;;;;;7.35;1.92;;;;;;;21.25;58.73;97847.13;4723252;29;107259;-81
2021/05/10 08:55:22;;;;;;;6.60;2.03;;;;;;;21.24;58.77;97846.31;4733609;29;104262;-81
2021/05/10 08:57:50;;;;;;;4.78;1.95;;;;;;;21.32;58.70;97851.53;4733034;29;105634;-81
2021/05/10 09:00:25;;;;;;;5.40;2.08;;;;;;;21.92;58.01;97842.69;4737060;29;103554;-81
2021/05/10 09:03:08;;;;;;;3.00;1.70;;;;;;;21.47;58.15;97847.88;4730414;29;111691;-82
2021/05/10 09:05:45;;;;;;;5.45;2.10;;;;;;;21.64;58.17;97858.06;4731381;29;107072;-82
2021/05/10 09:08:13;;;;;;;4.70;2.35;;;;;;;20.89;59.11;97874.13;4730821;29;103694;-82
2021/05/10 09:10:41;;;;;;;5.70;2.15;;;;;;;21.14;59.64;97870.00;4736108;29;104249;-82
2021/05/10 09:13:08;;;;;;;4.70;2.10;;;;;;;20.68;60.36;97868.81;4728011;29;107523;-81
2021/05/10 09:15:37;;;;;;;6.38;2.20;;;;;;;21.20;60.42;97871.91;4730029;29;103826;-80
2021/05/10 09:18:07;;;;;;;6.00;1.90;;;;;;;21.85;58.31;97879.44;4733708;29;103085;-81
2021/05/10 09:20:36;;;;;;;3.58;1.77;;;;;;;21.17;59.26;97877.66;4739008;29;103433;-82
2021/05/10 09:23:05;;;;;;;4.55;1.70;;;;;;;21.51;57.22;97873.28;4738272;29;103499;-79
2021/05/10 09:25:34;;;;;;;3.42;1.65;;;;;;;21.36;57.56;97868.09;4737568;29;104046;-79
2021/05/10 09:28:16;;;;;;;4.85;1.63;;;;;;;21.11;58.26;97870.38;4734579;29;102936;-78
2021/05/10 09:30:45;;;;;;;4.65;1.85;;;;;;;21.07;58.02;97869.13;4735573;29;103403;-78
2021/05/10 09:33:21;;;;;;;3.50;1.48;;;;;;;21.33;56.61;97880.03;4716497;29;106729;-78
2021/05/10 09:35:49;;;;;;;4.15;1.52;;;;;;;21.96;55.86;97875.38;4733689;29;104253;-79
2021/05/10 09:38:19;;;;;;;4.85;1.40;;;;;;;22.00;55.40;97883.88;4748212;29;105938;-77
2021/05/10 09:40:48;;;;;;;4.22;1.33;;;;;;;21.90;55.22;97878.88;4718204;29;103071;-79
2021/05/10 09:43:17;;;;;;;3.38;1.10;;;;;;;22.54;54.45;97874.66;4715312;29;105281;-78
2021/05/10 09:45:47;;;;;;;3.67;1.58;;;;;;;22.87;53.17;97874.72;4734695;29;103892;-80
2021/05/10 09:48:26;;;;;;;2.08;1.20;;;;;;;22.99;52.67;97875.72;4737424;29;103191;-78
2021/05/10 09:50:56;;;;;;;4.00;1.08;;;;;;;22.87;53.16;97880.09;4734176;29;103110;-79
2021/05/10 09:53:36;;;;;;;1.88;1.30;;;;;;;23.44;51.32;97882.09;4733677;29;104827;-78
2021/05/10 09:56:04;;;;;;;6.18;1.60;;;;;;;23.46;51.51;97881.88;4731661;29;103756;-79
2021/05/10 09:58:40;;;;;;;1.73;0.85;;;;;;;22.95;51.54;97892.50;4725060;29;103332;-78
2021/05/10 10:01:09;;;;;;;3.75;1.02;;;;;;;23.39;49.89;97878.38;4736274;29;103310;-79
2021/05/10 10:03:39;;;;;;;3.60;1.02;;;;;;;23.08;51.01;97884.41;4718439;29;106225;-82
2021/05/10 10:06:10;;;;;;;3.80;1.10;;;;;;;22.66;52.03;97882.16;4738707;29;103604;-83
2021/05/10 10:08:39;;;;;;;3.67;0.95;;;;;;;22.05;53.10;97874.16;4710794;29;103850;-82
2021/05/10 10:11:08;;;;;;;3.58;1.13;;;;;;;21.61;54.17;97882.69;4729169;29;103319;-83
2021/05/10 10:13:36;;;;;;;1.90;0.82;;;;;;;22.37;52.86;97888.72;4720462;29;104935;-82
2021/05/10 10:16:05;;;;;;;1.73;0.90;;;;;;;21.86;53.62;97904.47;4730274;29;103909;-81
2021/05/10 10:18:33;;;;;;;3.63;0.80;;;;;;;22.12;52.89;97923.41;4721347;29;103440;-82
2021/05/10 10:21:01;;;;;;;3.58;0.90;;;;;;;21.78;54.61;97910.03;4722281;29;103480;-82
2021/05/10 10:23:28;;;;;;;2.58;0.93;;;;;;;21.70;53.61;97920.94;4726046;29;103974;-82
2021/05/10 10:25:57;;;;;;;2.80;0.77;;;;;;;22.05;55.04;97927.97;4726957;29;103671;-81
2021/05/10 10:28:26;;;;;;;3.53;1.08;;;;;;;21.55;54.64;97920.25;4733408;29;105058;-82
2021/05/10 10:30:59;;;;;;;2.38;0.80;;;;;;;21.11;55.12;97940.22;4728584;29;103397;-82
2021/05/10 10:33:32;;;;;;;0.98;0.65;;;;;;;20.90;56.22;97948.28;4702104;29;103986;-82
2021/05/10 10:36:01;;;;;;;0.95;0.70;;;;;;;21.02;56.06;97951.28;4732789;29;105701;-82
2021/05/10 10:38:31;;;;;;;3.28;0.75;;;;;;;21.56;55.03;97954.97;4721206;29;103415;-81
2021/05/10 10:41:31;;;;;;;2.45;0.93;;;;;;;21.41;54.64;97977.63;4724602;29;103136;-81
2021/05/10 10:44:34;;;;;;;1.45;0.85;;;;;;;21.07;56.32;97992.66;4725363;29;105010;-82
2021/05/10 10:47:03;;;;;;;2.55;0.93;;;;;;;21.05;56.28;97993.84;4728750;29;104638;-82
2021/05/10 10:49:32;;;;;;;2.28;0.88;;;;;;;21.21;55.90;97981.00;4727996;29;103501;-83
2021/05/10 10:52:01;;;;;;;2.70;1.00;;;;;;;21.78;55.71;97964.59;4719177;29;104146;-81
2021/05/10 10:54:30;;;;;;;2.05;0.88;;;;;;;20.91;57.72;97966.06;4713939;29;104469;-78
2021/05/10 10:56:59;;;;;;;2.00;0.90;;;;;;;20.88;58.37;97961.06;4731460;29;104436;-83
2021/05/10 10:59:32;;;;;;;1.98;1.27;;;;;;;20.87;57.87;97953.19;4732179;29;102996;-79
2021/05/10 11:02:16;;;;;;;5.35;1.33;;;;;;;21.43;58.15;97967.50;4731363;29;104201;-77
2021/05/10 11:04:43;;;;;;;2.15;0.93;;;;;;;21.30;57.27;97960.19;4730336;29;103240;-79
2021/05/10 11:07:11;;;;;;;1.17;0.70;;;;;;;21.16;57.25;97959.28;4732896;29;103807;-77
2021/05/10 11:09:49;;;;;;;2.83;0.90;;;;;;;21.58;55.62;97974.44;4732236;29;103204;-77
2021/05/10 11:12:50;;;;;;;2.97;0.75;;;;;;;22.41;55.05;97981.44;4733093;29;103317;-79
2021/05/10 11:15:48;;;;;;;2.15;0.98;;;;;;;22.26;53.81;97994.25;4728624;29;103944;-79
2021/05/10 11:18:37;;;;;;;2.88;1.33;;;;;;;21.42;56.09;97984.66;4733042;29;105654;-81
2021/05/10 11:21:05;;;;;;;1.67;0.68;;;;;;;21.72;54.47;97983.41;4729373;29;103099;-80
2021/05/10 11:23:38;;;;;;;1.08;0.70;;;;;;;21.44;54.93;97998.72;4733025;29;103139;-83
2021/05/10 11:26:08;;;;;;;0.85;0.60;;;;;;;21.46;55.04;97996.66;4738154;29;103939;-80
2021/05/10 11:28:46;;;;;;;2.53;0.80;;;;;;;21.43;54.27;98011.31;4739256;29;103800;-80
2021/05/10 11:31:31;;;;;;;2.35;0.70;;;;;;;21.89;54.86;98009.78;4732047;29;102646;-80
2021/05/10 11:34:04;;;;;;;3.40;0.90;;;;;;;21.96;54.49;98023.28;4733376;29;103092;-82
2021/05/10 11:36:33;;;;;;;2.88;0.80;;;;;;;21.06;54.46;98028.56;4742561;29;104507;-87
2021/05/10 11:39:10;;;;;;;1.42;0.60;;;;;;;21.05;53.59;98016.13;4721683;29;107116;-86